createdAt,value
2023-04-14T00:00:53.466Z,2.80
2023-04-14T00:03:22.727Z,2.60
2023-04-14T00:05:51.718Z,2.80
2023-04-14T00:08:21.415Z,2.60
2023-04-14T00:10:49.688Z,2.80
2023-04-14T00:13:17.634Z,2.70
2023-04-14T00:15:48.982Z,2.10
2023-04-14T00:18:17.027Z,2.90
2023-04-14T00:20:44.989Z,2.40
2023-04-14T00:23:16.382Z,3.00
2023-04-14T00:25:45.078Z,2.60
2023-04-14T00:28:13.076Z,2.40
2023-04-14T00:30:46.759Z,2.40
2023-04-14T00:33:16.308Z,2.60
2023-04-14T00:35:44.277Z,2.90
2023-04-14T00:38:12.430Z,2.50
2023-04-14T00:40:40.495Z,2.40
2023-04-14T00:43:08.372Z,2.80
2023-04-14T00:45:41.287Z,2.50
2023-04-14T00:48:10.914Z,2.30
2023-04-14T00:50:39.426Z,2.80
2023-04-14T00:53:07.630Z,2.60
2023-04-14T00:55:36.504Z,2.50
2023-04-14T00:58:04.484Z,2.90
2023-04-14T01:00:33.979Z,3.00
2023-04-14T01:03:03.761Z,3.20
2023-04-14T01:05:33.969Z,3.00
2023-04-14T01:08:03.602Z,3.00
2023-04-14T01:10:36.231Z,3.00
2023-04-14T01:13:27.408Z,3.40
2023-04-14T01:15:58.009Z,3.50
2023-04-14T01:18:35.880Z,3.30
2023-04-14T01:21:06.983Z,3.50
2023-04-14T01:23:36.962Z,3.30
2023-04-14T01:26:19.404Z,3.60
2023-04-14T01:29:03.113Z,3.50
2023-04-14T01:31:35.629Z,3.40
2023-04-14T01:34:06.976Z,3.60
2023-04-14T01:36:40.010Z,3.80
2023-04-14T01:39:08.883Z,3.90
2023-04-14T01:41:38.870Z,3.70
2023-04-14T01:44:06.989Z,3.80
2023-04-14T01:46:35.397Z,3.50
2023-04-14T01:49:03.689Z,3.20
2023-04-14T01:51:33.478Z,4.00
2023-04-14T01:54:01.623Z,3.60
2023-04-14T01:56:29.880Z,3.60
2023-04-14T01:58:58.077Z,3.80
2023-04-14T02:01:26.698Z,4.00
2023-04-14T02:03:58.500Z,4.10
2023-04-14T02:06:27.702Z,3.60
2023-04-14T02:08:56.017Z,4.20
2023-04-14T02:11:24.005Z,3.30
2023-04-14T02:13:52.012Z,3.50
2023-04-14T02:16:19.995Z,3.90
2023-04-14T02:18:48.010Z,4.00
2023-04-14T02:21:18.722Z,3.90
2023-04-14T02:23:47.985Z,3.60
2023-04-14T02:26:22.498Z,3.80
2023-04-14T02:29:07.426Z,3.90
2023-04-14T02:31:36.965Z,4.20
2023-04-14T02:34:05.912Z,4.00
2023-04-14T02:36:46.420Z,4.00
2023-04-14T02:39:20.934Z,3.50
2023-04-14T02:41:56.996Z,3.90
2023-04-14T02:44:29.441Z,4.30
2023-04-14T02:47:04.103Z,4.30
2023-04-14T02:49:34.703Z,4.20
2023-04-14T02:52:05.944Z,4.10
2023-04-14T02:54:35.262Z,4.30
2023-04-14T02:57:04.166Z,4.20
2023-04-14T02:59:37.661Z,4.80
2023-04-14T03:02:07.205Z,4.10
2023-04-14T03:04:38.386Z,4.90
2023-04-14T03:07:09.239Z,4.80
2023-04-14T03:09:38.126Z,4.60
2023-04-14T03:12:12.833Z,5.00
2023-04-14T03:14:43.043Z,5.00
2023-04-14T03:17:14.849Z,5.30
2023-04-14T03:19:49.143Z,4.80
2023-04-14T03:22:18.460Z,5.50
2023-04-14T03:24:46.433Z,5.40
2023-04-14T03:27:18.501Z,4.90
2023-04-14T03:29:47.972Z,5.10
2023-04-14T03:32:16.594Z,5.50
2023-04-14T03:34:47.196Z,5.30
2023-04-14T03:37:18.352Z,5.30
2023-04-14T03:39:47.652Z,5.30
2023-04-14T03:42:16.755Z,5.40
2023-04-14T03:44:50.043Z,5.40
2023-04-14T03:47:19.325Z,5.60
2023-04-14T03:49:48.822Z,6.00
2023-04-14T03:52:17.009Z,5.60
2023-04-14T03:54:45.541Z,5.10
2023-04-14T03:57:14.045Z,5.90
2023-04-14T03:59:42.708Z,5.70
2023-04-14T04:02:12.420Z,6.10
2023-04-14T04:04:40.990Z,6.90
2023-04-14T04:07:10.640Z,6.20
2023-04-14T04:09:39.430Z,5.70
2023-04-14T04:12:07.948Z,6.10
2023-04-14T04:14:42.046Z,6.50
2023-04-14T04:17:12.940Z,5.80
2023-04-14T04:19:41.038Z,5.50
2023-04-14T04:22:14.804Z,6.50
2023-04-14T04:24:43.067Z,6.00
2023-04-14T04:27:26.515Z,6.20
2023-04-14T04:29:56.487Z,7.20
2023-04-14T04:32:25.295Z,6.00
2023-04-14T04:34:53.393Z,6.10
2023-04-14T04:37:21.570Z,6.70
2023-04-14T04:39:49.635Z,6.90
2023-04-14T04:42:17.867Z,6.60
2023-04-14T04:44:46.200Z,6.10
2023-04-14T04:47:14.388Z,6.20
2023-04-14T04:49:42.577Z,6.50
2023-04-14T04:52:10.694Z,7.30
2023-04-14T04:54:38.734Z,6.90
2023-04-14T04:57:07.674Z,7.20
2023-04-14T04:59:37.385Z,6.70
2023-04-14T05:02:09.325Z,7.10
2023-04-14T05:04:37.883Z,7.40
2023-04-14T05:07:06.309Z,7.60
2023-04-14T05:09:36.309Z,6.70
2023-04-14T05:12:06.958Z,7.40
2023-04-14T05:14:35.880Z,7.10
2023-04-14T05:17:08.975Z,7.80
2023-04-14T05:19:39.049Z,7.00
2023-04-14T05:22:07.979Z,7.30
2023-04-14T05:24:36.627Z,7.30
2023-04-14T05:27:14.364Z,7.30
2023-04-14T05:29:43.539Z,6.50
2023-04-14T05:32:13.131Z,5.70
2023-04-14T05:34:41.863Z,7.40
2023-04-14T05:37:11.033Z,8.30
2023-04-14T05:39:39.412Z,7.70
2023-04-14T05:42:07.651Z,7.60
2023-04-14T05:44:38.966Z,7.40
2023-04-14T05:47:07.088Z,7.90
2023-04-14T05:49:36.505Z,7.00
2023-04-14T05:52:05.016Z,7.80
2023-04-14T05:54:38.312Z,6.80
2023-04-14T05:57:06.375Z,7.70
2023-04-14T05:59:34.340Z,8.60
2023-04-14T06:02:06.765Z,7.90
2023-04-14T06:04:36.068Z,6.70
2023-04-14T06:07:04.403Z,7.00
2023-04-14T06:09:34.620Z,7.40
2023-04-14T06:12:09.474Z,7.50
2023-04-14T06:14:38.576Z,7.40
2023-04-14T06:17:10.048Z,6.70
2023-04-14T06:19:38.357Z,7.90
2023-04-14T06:22:06.466Z,7.60
2023-04-14T06:24:35.425Z,7.40
2023-04-14T06:27:06.794Z,7.30
2023-04-14T06:29:35.531Z,6.70
2023-04-14T06:32:06.048Z,7.30
2023-04-14T06:34:41.344Z,8.20
2023-04-14T06:37:13.228Z,7.00
2023-04-14T06:39:41.582Z,8.10
2023-04-14T06:42:13.452Z,8.00
2023-04-14T06:44:44.667Z,8.40
2023-04-14T06:47:18.578Z,8.50
2023-04-14T06:49:54.240Z,7.40
2023-04-14T06:52:31.017Z,8.10
2023-04-14T06:55:03.242Z,7.90
2023-04-14T06:57:36.726Z,7.70
2023-04-14T07:00:11.506Z,7.00
2023-04-14T07:03:06.099Z,7.00
2023-04-14T07:05:39.088Z,7.40
2023-04-14T07:08:13.968Z,8.40
2023-04-14T07:10:43.923Z,8.00
2023-04-14T07:13:15.677Z,7.60
2023-04-14T07:15:52.929Z,7.30
2023-04-14T07:18:21.904Z,8.50
2023-04-14T07:20:52.733Z,8.20
2023-04-14T07:23:21.977Z,8.50
2023-04-14T07:25:52.957Z,7.20
2023-04-14T07:28:25.017Z,8.20
2023-04-14T07:30:54.934Z,8.10
2023-04-14T07:33:24.224Z,7.80
2023-04-14T07:36:03.635Z,7.60
2023-04-14T07:38:34.019Z,7.70
2023-04-14T07:41:04.294Z,9.10
2023-04-14T07:43:43.530Z,8.50
2023-04-14T07:46:13.412Z,7.70
2023-04-14T07:48:42.663Z,8.50
2023-04-14T07:51:14.686Z,9.30
2023-04-14T07:53:46.492Z,8.30
2023-04-14T07:56:19.003Z,8.10
2023-04-14T07:58:48.828Z,7.90
2023-04-14T08:01:17.840Z,7.50
2023-04-14T08:03:46.950Z,8.40
2023-04-14T08:06:16.921Z,8.40
2023-04-14T08:08:48.401Z,8.50
2023-04-14T08:11:17.129Z,7.80
2023-04-14T08:13:49.912Z,9.10
2023-04-14T08:16:21.492Z,8.10
2023-04-14T08:18:50.777Z,8.80
2023-04-14T08:21:21.357Z,8.00
2023-04-14T08:23:53.733Z,7.80
2023-04-14T08:26:22.906Z,9.20
2023-04-14T08:28:51.057Z,7.90
2023-04-14T08:31:23.245Z,7.90
2023-04-14T08:33:55.632Z,7.90
2023-04-14T08:36:28.154Z,8.10
2023-04-14T08:38:57.412Z,8.80
2023-04-14T08:41:26.317Z,10.50
2023-04-14T08:43:54.968Z,7.40
2023-04-14T08:46:24.555Z,8.20
2023-04-14T08:48:52.717Z,9.10
2023-04-14T08:51:37.179Z,8.70
2023-04-14T08:54:11.812Z,10.50
2023-04-14T08:56:42.484Z,9.10
2023-04-14T08:59:11.372Z,9.30
2023-04-14T09:01:40.141Z,9.10
2023-04-14T09:04:10.049Z,8.20
2023-04-14T09:06:38.794Z,11.80
2023-04-14T09:09:09.534Z,11.80
2023-04-14T09:11:37.939Z,12.30
2023-04-14T09:14:07.234Z,10.40
2023-04-14T09:16:37.434Z,10.90
2023-04-14T09:19:07.200Z,12.70
2023-04-14T09:21:53.368Z,10.20
2023-04-14T09:24:32.363Z,9.60
2023-04-14T09:27:08.093Z,15.50
2023-04-14T09:29:41.104Z,10.50
2023-04-14T09:32:29.985Z,8.90
2023-04-14T09:35:01.613Z,8.40
2023-04-14T09:37:42.874Z,8.10
2023-04-14T09:40:27.104Z,6.50
2023-04-14T09:42:56.795Z,7.70
2023-04-14T09:45:55.755Z,7.20
2023-04-14T09:48:25.371Z,8.20
2023-04-14T09:51:01.832Z,8.20
2023-04-14T09:53:33.565Z,9.80
2023-04-14T09:56:05.714Z,8.60
2023-04-14T09:58:42.197Z,7.70
2023-04-14T10:01:15.843Z,7.60
2023-04-14T10:03:48.007Z,7.70
2023-04-14T10:06:19.411Z,8.00
2023-04-14T10:08:51.882Z,7.70
2023-04-14T10:11:29.736Z,8.40
2023-04-14T10:14:06.505Z,7.70
2023-04-14T10:16:40.895Z,7.80
2023-04-14T10:19:15.232Z,7.40
2023-04-14T10:21:44.937Z,7.50
2023-04-14T10:24:13.465Z,7.90
2023-04-14T10:26:43.422Z,8.00
2023-04-14T10:29:12.697Z,7.70
2023-04-14T10:31:43.990Z,8.20
2023-04-14T10:34:15.939Z,8.10
2023-04-14T10:36:44.539Z,8.00
2023-04-14T10:39:12.785Z,8.20
2023-04-14T10:41:48.403Z,6.70
2023-04-14T10:44:35.134Z,8.10
2023-04-14T10:47:08.228Z,7.70
2023-04-14T10:49:38.885Z,8.30
2023-04-14T10:52:27.634Z,8.50
2023-04-14T10:55:03.972Z,7.90
2023-04-14T10:57:32.183Z,7.40
2023-04-14T11:00:04.976Z,8.00
2023-04-14T11:02:35.563Z,6.80
2023-04-14T11:05:09.578Z,6.90
2023-04-14T11:07:47.385Z,6.70
2023-04-14T11:10:21.971Z,7.10
2023-04-14T11:13:04.076Z,6.20
2023-04-14T11:15:48.355Z,6.70
2023-04-14T11:18:37.134Z,7.00
2023-04-14T11:21:07.370Z,6.90
2023-04-14T11:23:36.497Z,7.00
2023-04-14T11:26:14.394Z,7.80
2023-04-14T11:28:47.995Z,7.00
2023-04-14T11:31:17.977Z,7.60
2023-04-14T11:33:48.869Z,7.00
2023-04-14T11:36:18.210Z,6.30
2023-04-14T11:38:48.435Z,6.80
2023-04-14T11:41:18.568Z,6.00
2023-04-14T11:43:49.859Z,6.00
2023-04-14T11:46:22.433Z,5.70
2023-04-14T11:48:57.383Z,5.90
2023-04-14T11:51:32.491Z,6.70
2023-04-14T11:54:03.611Z,7.00
2023-04-14T11:56:33.430Z,6.90
2023-04-14T11:59:03.056Z,6.30
2023-04-14T12:01:33.639Z,5.90
2023-04-14T12:04:08.100Z,6.30
2023-04-14T12:09:11.819Z,8.20
2023-04-14T12:11:41.044Z,8.30
2023-04-14T12:14:10.012Z,6.50
2023-04-14T12:16:38.248Z,6.50
2023-04-14T12:19:07.753Z,6.60
2023-04-14T12:21:36.474Z,7.90
2023-04-14T12:24:11.289Z,7.20
2023-04-14T12:27:09.194Z,6.40
2023-04-14T12:29:38.301Z,6.20
2023-04-14T12:32:12.630Z,6.30
2023-04-14T12:34:55.005Z,6.60
2023-04-14T12:37:28.014Z,6.60
2023-04-14T12:39:59.175Z,6.40
2023-04-14T12:42:28.530Z,6.90
2023-04-14T12:44:59.442Z,6.20
2023-04-14T12:50:31.150Z,6.80
2023-04-14T12:53:03.671Z,6.60
2023-04-14T12:55:33.920Z,7.20
2023-04-14T12:58:03.986Z,7.10
2023-04-14T13:00:33.178Z,6.30
2023-04-14T13:03:08.192Z,6.30
2023-04-14T13:05:41.894Z,6.70
2023-04-14T13:08:10.601Z,6.40
2023-04-14T13:10:38.716Z,6.10
2023-04-14T13:13:12.279Z,5.60
2023-04-14T13:16:12.913Z,5.60
2023-04-14T13:18:31.777Z,6.10
2023-04-14T13:21:02.313Z,6.20
2023-04-14T13:23:31.756Z,5.70
2023-04-14T13:26:01.648Z,6.20
2023-04-14T13:28:32.014Z,6.50
2023-04-14T13:31:01.709Z,5.70
2023-04-14T13:33:31.210Z,6.40
2023-04-14T13:35:59.473Z,6.20
2023-04-14T13:38:29.145Z,6.30
2023-04-14T13:40:59.218Z,6.60
2023-04-14T13:43:27.192Z,6.20
2023-04-14T13:45:59.165Z,5.80
2023-04-14T13:48:27.615Z,6.30
2023-04-14T13:50:56.015Z,6.30
2023-04-14T13:53:24.358Z,6.00
2023-04-14T13:55:52.616Z,6.00
2023-04-14T13:58:21.388Z,5.40
2023-04-14T14:00:50.728Z,6.10
2023-04-14T14:03:40.715Z,5.80
2023-04-14T14:06:10.497Z,6.10
2023-04-14T14:08:42.224Z,6.30
2023-04-14T14:11:14.234Z,5.60
2023-04-14T14:13:43.171Z,6.00
2023-04-14T14:16:11.324Z,6.40
2023-04-14T14:18:47.467Z,5.40
2023-04-14T14:21:16.144Z,5.30
2023-04-14T14:23:53.134Z,5.20
2023-04-14T14:26:21.040Z,5.20
2023-04-14T14:28:49.226Z,5.80
2023-04-14T14:31:18.002Z,6.50
2023-04-14T14:33:46.919Z,5.50
2023-04-14T14:36:15.426Z,5.20
2023-04-14T14:38:43.472Z,5.90
2023-04-14T14:41:12.606Z,5.30
2023-04-14T14:43:40.881Z,5.80
2023-04-14T14:46:09.941Z,5.30
2023-04-14T14:48:38.751Z,5.40
2023-04-14T14:51:06.673Z,5.40
2023-04-14T14:53:39.105Z,6.30
2023-04-14T14:56:10.581Z,5.10
2023-04-14T14:58:38.560Z,5.30
2023-04-14T15:01:16.980Z,5.70
2023-04-14T15:03:46.574Z,5.40
2023-04-14T15:06:15.517Z,5.30
2023-04-14T15:08:43.878Z,5.60
2023-04-14T15:11:14.603Z,5.30
2023-04-14T15:13:45.549Z,4.70
2023-04-14T15:16:13.602Z,5.10
2023-04-14T15:18:43.057Z,5.00
2023-04-14T15:21:11.225Z,4.90
2023-04-14T15:23:41.958Z,5.40
2023-04-14T15:26:16.212Z,4.80
2023-04-14T15:28:49.326Z,4.50
2023-04-14T15:31:18.304Z,5.30
2023-04-14T15:33:46.712Z,4.30
2023-04-14T15:36:17.046Z,4.90
2023-04-14T15:38:47.162Z,4.70
2023-04-14T15:41:15.097Z,5.40
2023-04-14T15:43:43.173Z,6.20
2023-04-14T15:46:13.223Z,5.20
2023-04-14T15:48:42.662Z,4.50
2023-04-14T15:51:11.135Z,4.50
2023-04-14T15:53:39.319Z,4.10
2023-04-14T15:56:07.295Z,5.00
2023-04-14T15:58:35.564Z,5.10
2023-04-14T16:01:07.548Z,4.40
2023-04-14T16:03:38.080Z,4.20
2023-04-14T16:06:08.235Z,4.40
2023-04-14T16:08:37.401Z,4.30
2023-04-14T16:11:05.517Z,5.00
2023-04-14T16:13:39.229Z,4.20
2023-04-14T16:16:08.125Z,4.50
2023-04-14T16:18:37.022Z,4.70
2023-04-14T16:21:05.590Z,4.40
2023-04-14T16:23:37.189Z,4.60
2023-04-14T16:26:05.837Z,4.30
2023-04-14T16:28:34.596Z,4.40
2023-04-14T16:31:05.394Z,4.70
2023-04-14T16:33:34.136Z,3.80
2023-04-14T16:36:06.590Z,4.90
2023-04-14T16:38:34.534Z,4.30
2023-04-14T16:41:02.647Z,4.30
2023-04-14T16:43:31.567Z,4.30
2023-04-14T16:46:04.227Z,4.40
2023-04-14T16:48:35.109Z,4.20
2023-04-14T16:51:04.850Z,4.10
2023-04-14T16:53:34.744Z,4.10
2023-04-14T16:56:07.273Z,4.50
2023-04-14T16:58:45.498Z,4.20
2023-04-14T17:01:13.694Z,4.40
2023-04-14T17:03:42.529Z,4.30
2023-04-14T17:06:10.995Z,3.10
2023-04-14T17:08:41.698Z,4.00
2023-04-14T17:11:09.916Z,3.80
2023-04-14T17:13:38.448Z,4.40
2023-04-14T17:16:11.245Z,3.80
2023-04-14T17:18:41.484Z,3.80
2023-04-14T17:21:09.492Z,4.30
2023-04-14T17:23:48.985Z,3.60
2023-04-14T17:26:17.071Z,3.90
2023-04-14T17:28:45.884Z,3.40
2023-04-14T17:31:15.768Z,3.50
2023-04-14T17:33:44.679Z,4.00
2023-04-14T17:36:14.786Z,3.60
2023-04-14T17:38:43.572Z,3.80
2023-04-14T17:41:12.832Z,4.50
2023-04-14T17:43:43.903Z,3.70
2023-04-14T17:46:12.526Z,4.10
2023-04-14T17:48:41.469Z,3.70
2023-04-14T17:51:10.268Z,3.10
2023-04-14T17:53:39.397Z,3.60
2023-04-14T17:56:07.865Z,3.80
2023-04-14T17:58:36.839Z,3.90
2023-04-14T18:01:05.702Z,4.30
2023-04-14T18:03:35.124Z,3.90
2023-04-14T18:06:03.513Z,4.00
2023-04-14T18:08:32.285Z,3.80
2023-04-14T18:11:00.478Z,3.20
2023-04-14T18:13:29.944Z,3.80
2023-04-14T18:15:58.025Z,4.00
2023-04-14T18:18:29.379Z,4.30
2023-04-14T18:20:57.602Z,3.80
2023-04-14T18:23:25.543Z,3.80
2023-04-14T18:28:33.832Z,4.30
2023-04-14T18:31:01.821Z,3.50
2023-04-14T18:33:30.710Z,3.90
2023-04-14T18:36:00.524Z,3.60
2023-04-14T18:38:28.851Z,3.40
2023-04-14T18:41:05.037Z,3.50
2023-04-14T18:46:02.581Z,3.40
2023-04-14T18:51:04.614Z,2.80
2023-04-14T18:53:32.640Z,3.90
2023-04-14T18:56:03.367Z,3.80
2023-04-14T18:58:32.589Z,3.80
2023-04-14T19:01:00.654Z,3.70
2023-04-14T19:03:31.844Z,3.30
2023-04-14T19:06:00.164Z,3.80
2023-04-14T19:08:28.157Z,3.40
2023-04-14T19:10:57.510Z,3.50
2023-04-14T19:13:28.322Z,3.10
2023-04-14T19:16:06.470Z,3.70
2023-04-14T19:18:35.563Z,3.40
2023-04-14T19:21:07.920Z,2.90
2023-04-14T19:23:36.379Z,3.70
2023-04-14T19:26:06.411Z,4.00
2023-04-14T19:28:39.960Z,3.60
2023-04-14T19:31:08.347Z,3.70
2023-04-14T19:33:36.541Z,3.10
2023-04-14T19:36:14.934Z,3.60
2023-04-14T19:38:44.096Z,3.50
2023-04-14T19:41:12.298Z,3.30
2023-04-14T19:43:42.096Z,3.50
2023-04-14T19:46:12.891Z,3.20
2023-04-14T19:48:42.733Z,2.90
2023-04-14T19:51:11.459Z,3.40
2023-04-14T19:53:39.698Z,3.70
2023-04-14T19:56:08.817Z,3.20
2023-04-14T19:58:37.322Z,3.40
2023-04-14T20:01:06.124Z,3.10
2023-04-14T20:03:36.714Z,3.30
2023-04-14T20:06:04.936Z,3.30
2023-04-14T20:08:34.587Z,3.40
2023-04-14T20:11:04.960Z,3.60
2023-04-14T20:13:35.484Z,3.30
2023-04-14T20:16:08.669Z,3.30
2023-04-14T20:18:36.749Z,3.40
2023-04-14T20:21:06.449Z,3.40
2023-04-14T20:23:34.714Z,3.70
2023-04-14T20:26:06.914Z,3.70
2023-04-14T20:28:36.177Z,3.60
2023-04-14T20:31:04.219Z,4.00
2023-04-14T20:33:34.320Z,3.60
2023-04-14T20:36:02.350Z,4.00
2023-04-14T20:38:30.957Z,3.80
2023-04-14T20:41:01.164Z,4.00
2023-04-14T20:43:34.354Z,3.40
2023-04-14T20:46:03.879Z,3.40
2023-04-14T20:48:35.371Z,3.40
2023-04-14T20:51:04.552Z,2.60
2023-04-14T20:53:32.634Z,3.20
2023-04-14T20:56:01.073Z,3.00
2023-04-14T20:58:30.573Z,2.60
2023-04-14T21:00:58.575Z,3.00
2023-04-14T21:03:28.987Z,2.90
2023-04-14T21:05:57.630Z,2.80
2023-04-14T21:08:27.454Z,2.40
2023-04-14T21:11:15.703Z,2.50
2023-04-14T21:15:25.125Z,2.20
2023-04-14T21:16:32.831Z,2.40
2023-04-14T21:19:04.315Z,2.10
2023-04-14T21:24:11.383Z,2.60
2023-04-14T21:26:39.465Z,2.10
2023-04-14T21:29:14.665Z,2.20
2023-04-14T21:31:42.796Z,2.40
2023-04-14T21:34:11.279Z,2.20
2023-04-14T21:36:39.418Z,2.00
2023-04-14T21:39:07.520Z,2.20
2023-04-14T21:41:35.870Z,2.10
2023-04-14T21:44:04.102Z,2.50
2023-04-14T21:46:35.058Z,2.30
2023-04-14T21:49:03.888Z,2.20
2023-04-14T21:51:32.223Z,2.20
2023-04-14T21:54:02.638Z,2.20
2023-04-14T21:56:31.446Z,2.20
2023-04-14T21:58:59.751Z,2.50
2023-04-14T22:01:31.563Z,2.30
2023-04-14T22:04:00.725Z,3.10
2023-04-14T22:06:29.554Z,2.10
2023-04-14T22:09:01.929Z,2.40
2023-04-14T22:11:32.188Z,2.30
2023-04-14T22:14:00.917Z,2.30
2023-04-14T22:16:35.570Z,2.40
2023-04-14T22:19:09.117Z,2.70
2023-04-14T22:21:37.843Z,2.70
2023-04-14T22:24:06.287Z,3.10
2023-04-14T22:26:34.375Z,3.30
2023-04-14T22:29:02.719Z,3.20
2023-04-14T22:31:31.260Z,3.10
2023-04-14T22:33:59.416Z,2.90
2023-04-14T22:36:28.588Z,2.90
2023-04-14T22:38:57.092Z,2.40
2023-04-14T22:41:25.023Z,3.40
2023-04-14T22:43:53.462Z,2.90
2023-04-14T22:46:24.382Z,2.50
2023-04-14T22:48:52.690Z,3.40
2023-04-14T22:51:20.744Z,3.00
2023-04-14T22:53:49.373Z,2.80
2023-04-14T22:56:18.016Z,3.10
2023-04-14T22:58:45.903Z,3.40
2023-04-14T23:01:21.929Z,3.00
2023-04-14T23:03:54.829Z,3.00
2023-04-14T23:06:23.087Z,3.00
2023-04-14T23:08:51.378Z,2.90
2023-04-14T23:11:20.928Z,3.30
2023-04-14T23:13:49.642Z,3.30
2023-04-14T23:16:20.013Z,2.90
2023-04-14T23:18:52.904Z,3.20
2023-04-14T23:21:24.873Z,2.50
2023-04-14T23:23:52.938Z,3.20
2023-04-14T23:26:27.194Z,3.30
2023-04-14T23:28:56.942Z,3.20
2023-04-14T23:31:25.061Z,2.90
2023-04-14T23:33:53.082Z,2.60
2023-04-14T23:36:21.712Z,3.20
2023-04-14T23:38:49.619Z,3.10
2023-04-14T23:41:21.965Z,3.10
2023-04-14T23:43:51.636Z,3.10
2023-04-14T23:46:19.706Z,3.10
2023-04-14T23:48:53.503Z,2.60
2023-04-14T23:51:22.876Z,3.00
2023-04-14T23:53:51.787Z,3.00
2023-04-14T23:56:24.112Z,2.70
2023-04-14T23:58:52.194Z,3.10
